Time;durP1;ratioP1;P1;durP2;ratioP2;P2;SDS_P1;SDS_P2;PMS_P1;PMS_P2;Temp;Humidity;BMP_temperature;BMP_pressure;BME280_temperature;BME280_humidity;BME280_pressure;Samples;Min_cycle;Max_cycle;Signal;HPM_P1;HPM_P2
2024/01/28 00:00:31;;;;;;;12.07;5.05;;;;;;;23.54;44.30;102346.69;2121878;27;20201;-63
2024/01/28 00:01:33;;;;;;;12.65;4.85;;;;;;;23.51;44.37;102342.66;2119973;27;20053;-63
2024/01/28 00:02:35;;;;;;;10.82;4.80;;;;;;;23.54;44.30;102352.19;2113594;27;20039;-63
2024/01/28 00:03:36;;;;;;;13.10;5.07;;;;;;;23.53;44.43;102345.09;2107995;27;20036;-63
2024/01/28 00:04:38;;;;;;;11.30;4.65;;;;;;;23.53;44.30;102350.56;2104766;27;20101;-64
2024/01/28 00:05:42;;;;;;;13.52;5.13;;;;;;;23.53;44.30;102345.09;2100087;28;20102;-64
2024/01/28 00:06:44;;;;;;;11.45;4.75;;;;;;;23.54;44.22;102346.69;2106384;27;20041;-63
2024/01/28 00:07:46;;;;;;;11.07;4.78;;;;;;;23.54;44.28;102343.94;2122082;27;20030;-63
2024/01/28 00:08:47;;;;;;;10.82;4.05;;;;;;;23.53;44.28;102340.41;2121817;27;21245;-63
2024/01/28 00:09:50;;;;;;;14.00;4.57;;;;;;;23.54;44.23;102341.19;2118516;27;20969;-63
2024/01/28 00:10:54;;;;;;;10.45;5.05;;;;;;;23.53;44.18;102334.91;2130584;27;20327;-64
2024/01/28 00:11:59;;;;;;;13.50;4.63;;;;;;;23.54;44.25;102332.97;2129985;27;20030;-64
2024/01/28 00:13:01;;;;;;;8.63;4.43;;;;;;;23.54;44.23;102346.69;2131851;27;20992;-64
2024/01/28 00:14:03;;;;;;;9.88;4.35;;;;;;;23.50;44.30;102323.78;2123070;27;20032;-63
2024/01/28 00:15:07;;;;;;;9.60;4.00;;;;;;;23.54;44.20;102341.19;2114707;27;20085;-63
2024/01/28 00:16:16;;;;;;;9.23;3.90;;;;;;;23.54;44.20;102349.44;2113214;27;20792;-63
2024/01/28 00:17:17;;;;;;;9.73;4.47;;;;;;;23.53;44.15;102347.81;2124650;27;20044;-63
2024/01/28 00:18:20;;;;;;;10.48;4.20;;;;;;;23.54;44.12;102343.94;2132613;27;20023;-63
2024/01/28 00:19:21;;;;;;;10.48;4.63;;;;;;;23.53;44.21;102340.41;2123218;27;20062;-63
2024/01/28 00:20:23;;;;;;;9.20;4.07;;;;;;;23.51;44.13;102339.09;2106003;28;20106;-62
2024/01/28 00:21:28;;;;;;;10.77;4.15;;;;;;;23.53;44.04;102339.59;2115655;27;20210;-63
2024/01/28 00:22:30;;;;;;;8.63;3.72;;;;;;;23.53;44.14;102339.59;2123618;27;21511;-63
2024/01/28 00:23:31;;;;;;;9.15;3.95;;;;;;;23.53;44.14;102340.41;2123159;27;20104;-63
2024/01/28 00:24:33;;;;;;;8.88;3.83;;;;;;;23.53;44.15;102334.09;2131667;27;20019;-63
2024/01/28 00:25:35;;;;;;;9.88;3.88;;;;;;;23.52;44.06;102338.78;2123105;27;20040;-63
2024/01/28 00:26:41;;;;;;;10.80;4.18;;;;;;;23.53;44.07;102334.09;2105972;27;20183;-63
2024/01/28 00:27:42;;;;;;;9.55;4.07;;;;;;;23.53;44.12;102342.34;2116268;27;20110;-63
2024/01/28 00:28:44;;;;;;;10.77;3.80;;;;;;;23.53;44.07;102334.09;2114546;27;20192;-63
2024/01/28 00:29:45;;;;;;;9.07;3.85;;;;;;;23.53;44.08;102334.09;2097939;28;20060;-63
2024/01/28 00:30:47;;;;;;;9.65;4.07;;;;;;;23.52;44.16;102338.00;2091601;27;20057;-62
2024/01/28 00:31:50;;;;;;;10.48;3.47;;;;;;;23.53;43.96;102336.84;2113125;27;20874;-62
2024/01/28 00:32:52;;;;;;;10.07;4.10;;;;;;;23.53;44.03;102339.59;2123140;27;20089;-62
2024/01/28 00:33:54;;;;;;;9.40;3.90;;;;;;;23.53;44.03;102334.09;2123529;27;20036;-63
2024/01/28 00:34:56;;;;;;;9.57;3.78;;;;;;;23.52;43.95;102338.00;2114091;27;20032;-64
2024/01/28 00:36:02;;;;;;;8.60;3.50;;;;;;;23.52;44.03;102338.78;2114502;27;20036;-64
2024/01/28 00:37:05;;;;;;;9.38;4.22;;;;;;;23.52;43.45;102348.97;2119051;27;20024;-63
2024/01/28 00:38:06;;;;;;;10.27;3.55;;;;;;;23.50;43.13;102345.72;2129172;27;20153;-63
2024/01/28 00:39:13;;;;;;;9.30;3.53;;;;;;;23.48;42.83;102342.50;2131449;27;20780;-63
2024/01/28 00:40:15;;;;;;;11.15;3.85;;;;;;;23.45;42.62;102346.69;2132199;27;20032;-63
2024/01/28 00:41:40;;;;;;;10.73;3.55;;;;;;;23.41;42.60;102342.97;2114205;27;20032;-63
2024/01/28 00:42:41;;;;;;;6.47;3.30;;;;;;;23.39;42.29;102344.41;2105546;27;20048;-63
2024/01/28 00:43:43;;;;;;;9.55;3.60;;;;;;;23.33;42.18;102330.88;2114608;27;21267;-64
2024/01/28 00:44:45;;;;;;;8.65;3.20;;;;;;;23.29;41.99;102345.56;2114498;27;20028;-64
2024/01/28 00:45:47;;;;;;;10.82;3.38;;;;;;;23.26;41.92;102338.75;2106751;27;20039;-64
2024/01/28 00:46:51;;;;;;;8.63;3.30;;;;;;;23.22;41.80;102334.25;2115200;27;21087;-63
2024/01/28 00:47:53;;;;;;;9.57;3.67;;;;;;;23.17;41.78;102343.47;2110656;27;20031;-63
2024/01/28 00:48:55;;;;;;;8.52;3.30;;;;;;;23.13;41.79;102336.97;2105858;28;20033;-63
2024/01/28 00:49:57;;;;;;;8.55;3.40;;;;;;;23.10;41.65;102337.63;2105013;27;20967;-63
2024/01/28 00:50:59;;;;;;;9.18;3.10;;;;;;;23.05;41.61;102338.59;2111672;27;20072;-63
2024/01/28 00:52:02;;;;;;;7.85;2.92;;;;;;;23.02;41.55;102335.69;2108857;27;20042;-63
2024/01/28 00:53:06;;;;;;;7.55;3.30;;;;;;;22.99;41.43;102344.56;2104174;28;20020;-63
2024/01/28 00:54:09;;;;;;;10.55;3.08;;;;;;;22.95;41.58;102340.81;2114624;27;20035;-63
2024/01/28 00:55:10;;;;;;;11.75;2.95;;;;;;;22.92;41.50;102350.47;2130873;27;20036;-63
2024/01/28 00:56:17;;;;;;;8.38;2.70;;;;;;;22.88;41.47;102347.53;2124015;27;20035;-63
2024/01/28 00:57:18;;;;;;;7.85;2.90;;;;;;;22.85;41.37;102348.19;2120466;27;20031;-63
2024/01/28 00:58:20;;;;;;;6.78;2.60;;;;;;;22.83;41.35;102355.13;2119372;27;20863;-62
2024/01/28 00:59:22;;;;;;;6.97;2.47;;;;;;;22.79;41.29;102356.88;2118380;27;20846;-63
2024/01/28 01:00:25;;;;;;;8.25;2.78;;;;;;;22.76;41.18;102352.03;2115625;27;20040;-64
2024/01/28 01:01:26;;;;;;;13.52;3.58;;;;;;;22.74;41.17;102351.56;2109436;27;20867;-63
2024/01/28 01:02:28;;;;;;;10.00;2.50;;;;;;;22.70;41.14;102348.66;2098852;28;20029;-63
2024/01/28 01:03:29;;;;;;;7.97;2.60;;;;;;;22.68;41.09;102359.91;2107350;27;20124;-63
2024/01/28 01:04:32;;;;;;;6.22;2.55;;;;;;;22.66;41.17;102358.59;2132630;27;20042;-62
2024/01/28 01:05:34;;;;;;;7.15;2.72;;;;;;;22.64;41.19;102349.91;2115519;27;20031;-63
2024/01/28 01:06:41;;;;;;;8.40;2.83;;;;;;;22.58;41.13;102351.19;2116318;27;20133;-63
2024/01/28 01:07:43;;;;;;;6.88;2.45;;;;;;;22.57;41.05;102357.75;2128986;27;20031;-63
2024/01/28 01:08:45;;;;;;;9.90;2.42;;;;;;;22.57;41.08;102352.28;2132712;27;20813;-63
2024/01/28 01:09:46;;;;;;;7.35;2.97;;;;;;;22.54;40.96;102355.66;2128367;27;20023;-63
2024/01/28 01:10:48;;;;;;;7.53;2.40;;;;;;;22.53;41.06;102362.28;2115666;27;20170;-63
2024/01/28 01:11:50;;;;;;;7.43;2.28;;;;;;;22.49;41.03;102359.34;2129968;27;20119;-63
2024/01/28 01:12:52;;;;;;;5.10;2.08;;;;;;;22.48;40.99;102359.66;2133339;27;21286;-63
2024/01/28 01:13:54;;;;;;;7.20;2.33;;;;;;;22.45;40.96;102361.13;2115726;27;20866;-63
2024/01/28 01:14:55;;;;;;;7.72;3.05;;;;;;;22.42;40.96;102357.06;2107364;27;20017;-63
2024/01/28 01:15:57;;;;;;;6.03;2.50;;;;;;;22.42;40.85;102368.03;2122342;27;20070;-63
2024/01/28 01:16:58;;;;;;;9.43;2.75;;;;;;;22.39;40.90;102368.66;2133160;27;20058;-63
2024/01/28 01:18:00;;;;;;;6.05;2.47;;;;;;;22.37;40.76;102362.69;2132725;27;20022;-63
2024/01/28 01:19:02;;;;;;;6.72;2.40;;;;;;;22.36;40.94;102368.50;2115917;27;20035;-63
2024/01/28 01:20:06;;;;;;;8.82;2.33;;;;;;;22.33;40.81;102358.97;2124383;27;20016;-63
2024/01/28 01:21:08;;;;;;;6.05;2.30;;;;;;;22.31;40.72;102361.19;2132652;27;20734;-63
2024/01/28 01:22:10;;;;;;;6.30;2.50;;;;;;;22.29;40.67;102368.94;2124116;27;20040;-63
2024/01/28 01:23:11;;;;;;;7.60;2.67;;;;;;;22.27;40.69;102368.44;2114430;27;20867;-63
2024/01/28 01:24:13;;;;;;;6.05;2.20;;;;;;;22.25;40.56;102362.44;2120847;27;20031;-62
2024/01/28 01:25:14;;;;;;;6.97;2.42;;;;;;;22.23;40.73;102361.97;2128276;27;20024;-63
2024/01/28 01:26:16;;;;;;;6.95;2.40;;;;;;;22.21;40.59;102353.25;2124375;27;20197;-63
2024/01/28 01:27:18;;;;;;;6.32;2.20;;;;;;;22.19;40.60;102350.84;2116313;27;20032;-63
2024/01/28 01:28:20;;;;;;;5.68;2.00;;;;;;;22.17;40.84;102355.81;2133044;27;20082;-63
2024/01/28 01:29:22;;;;;;;5.57;1.85;;;;;;;22.15;40.58;102357.22;2132574;27;20174;-63
2024/01/28 01:30:24;;;;;;;6.28;2.20;;;;;;;22.14;40.68;102350.94;2123982;27;20893;-63
2024/01/28 01:31:25;;;;;;;6.25;1.80;;;;;;;22.12;40.75;102352.34;2123925;27;20150;-64
2024/01/28 01:32:27;;;;;;;5.07;1.63;;;;;;;22.11;40.68;102351.56;2124744;27;20138;-63
2024/01/28 01:33:29;;;;;;;4.95;1.80;;;;;;;22.09;40.59;102358.47;2121566;27;20038;-63
2024/01/28 01:34:31;;;;;;;6.75;2.13;;;;;;;22.08;40.59;102351.38;2115898;27;20020;-63
2024/01/28 01:35:36;;;;;;;7.10;2.00;;;;;;;22.07;40.55;102349.72;2132292;27;20031;-63
2024/01/28 01:36:37;;;;;;;6.15;1.90;;;;;;;22.05;40.50;102346.53;2124318;27;20024;-62
2024/01/28 01:37:40;;;;;;;5.75;1.80;;;;;;;22.03;40.57;102352.28;2107561;27;20103;-63
2024/01/28 01:38:41;;;;;;;5.88;1.95;;;;;;;22.02;40.53;102350.69;2123695;27;20052;-63
2024/01/28 01:39:43;;;;;;;7.10;1.92;;;;;;;22.01;40.79;102351.03;2123210;27;20655;-62
2024/01/28 01:40:45;;;;;;;6.22;2.08;;;;;;;21.99;40.40;102360.34;2115920;27;20024;-63
2024/01/28 01:41:48;;;;;;;7.60;2.20;;;;;;;21.96;40.45;102350.00;2132684;27;20034;-63
2024/01/28 01:42:50;;;;;;;5.80;2.03;;;;;;;21.95;40.69;102356.59;2132111;27;20766;-64
2024/01/28 01:43:56;;;;;;;5.78;2.00;;;;;;;21.95;40.54;102359.34;2107299;28;20936;-63
2024/01/28 01:44:57;;;;;;;5.50;2.00;;;;;;;21.94;40.48;102365.13;2108500;27;20052;-63
2024/01/28 01:45:59;;;;;;;7.90;2.63;;;;;;;21.93;40.58;102349.81;2107256;28;20149;-64
2024/01/28 01:47:02;;;;;;;6.32;2.00;;;;;;;21.90;40.34;102362.19;2116345;27;20027;-63
2024/01/28 01:48:06;;;;;;;6.38;1.73;;;;;;;21.89;40.50;102355.13;2117184;27;20862;-64
2024/01/28 01:49:08;;;;;;;4.82;1.77;;;;;;;21.88;40.36;102363.63;2116364;27;20798;-64
2024/01/28 01:50:16;;;;;;;6.30;2.08;;;;;;;21.87;40.24;102354.59;2123356;27;20036;-63
2024/01/28 01:51:17;;;;;;;4.38;1.70;;;;;;;21.86;40.33;102366.69;2118121;27;20095;-63
2024/01/28 01:52:20;;;;;;;7.35;1.92;;;;;;;21.85;40.46;102367.03;2111808;27;20106;-63
2024/01/28 01:53:22;;;;;;;5.45;2.03;;;;;;;21.83;40.38;102372.78;2111151;27;20031;-63
2024/01/28 01:54:24;;;;;;;4.97;1.80;;;;;;;21.81;40.38;102369.53;2115227;27;20030;-63
2024/01/28 01:55:26;;;;;;;7.07;1.80;;;;;;;21.81;40.27;102374.22;2106467;28;20024;-63
2024/01/28 01:56:31;;;;;;;7.45;2.00;;;;;;;21.80;40.33;102373.41;2102065;27;20020;-61
2024/01/28 01:57:33;;;;;;;6.63;1.83;;;;;;;21.73;40.15;102367.56;2117113;27;20039;-60
2024/01/28 01:58:35;;;;;;;5.53;2.10;;;;;;;21.77;40.12;102387.72;2105322;28;20036;-63
2024/01/28 01:59:38;;;;;;;8.57;1.85;;;;;;;21.74;40.15;102369.97;2089876;28;20044;-61
2024/01/28 02:00:41;;;;;;;8.80;2.20;;;;;;;21.73;40.03;102378.50;2098001;27;20849;-61
2024/01/28 02:01:43;;;;;;;4.55;1.60;;;;;;;21.72;40.15;102382.34;2114692;27;20055;-62
2024/01/28 02:02:47;;;;;;;5.38;1.83;;;;;;;21.70;40.13;102390.09;2119071;27;20028;-62
2024/01/28 02:03:49;;;;;;;4.25;1.88;;;;;;;21.69;40.14;102377.50;2128991;27;20758;-61
2024/01/28 02:04:50;;;;;;;6.55;1.88;;;;;;;21.67;40.08;102377.00;2125184;27;20053;-61
2024/01/28 02:05:52;;;;;;;6.55;1.98;;;;;;;21.67;40.19;102375.09;2129171;27;20141;-61
2024/01/28 02:06:54;;;;;;;6.47;1.75;;;;;;;21.66;40.00;102378.16;2118685;27;20031;-61
2024/01/28 02:07:55;;;;;;;6.40;2.25;;;;;;;21.64;39.93;102380.38;2106854;27;20154;-62
2024/01/28 02:08:57;;;;;;;5.07;1.88;;;;;;;21.63;39.94;102379.56;2121552;27;20892;-62
2024/01/28 02:09:59;;;;;;;6.32;2.17;;;;;;;21.63;39.92;102378.75;2120069;27;20159;-63
2024/01/28 02:11:02;;;;;;;5.70;1.90;;;;;;;21.62;39.98;102377.13;2118751;27;20071;-61
2024/01/28 02:12:04;;;;;;;5.78;2.20;;;;;;;21.59;40.14;102369.53;2112633;27;21089;-61
2024/01/28 02:13:05;;;;;;;8.40;2.10;;;;;;;21.59;39.89;102384.03;2113742;27;20024;-61
2024/01/28 02:14:06;;;;;;;8.27;1.98;;;;;;;21.59;39.88;102383.22;2116583;27;20842;-62
2024/01/28 02:15:12;;;;;;;8.45;1.98;;;;;;;21.57;39.98;102388.22;2109467;27;20043;-62
2024/01/28 02:16:14;;;;;;;8.07;1.98;;;;;;;21.57;39.91;102385.47;2115005;27;20129;-62
2024/01/28 02:17:16;;;;;;;7.90;2.05;;;;;;;21.55;39.93;102387.69;2121062;27;20775;-62
2024/01/28 02:18:19;;;;;;;7.35;2.10;;;;;;;21.55;39.93;102380.28;2128308;27;20977;-62
2024/01/28 02:19:21;;;;;;;8.60;2.38;;;;;;;21.54;39.94;102386.09;2122266;27;20030;-62
2024/01/28 02:20:23;;;;;;;5.70;1.85;;;;;;;21.53;39.95;102385.25;2123270;27;20062;-61
2024/01/28 02:21:25;;;;;;;6.45;1.88;;;;;;;21.52;39.98;102389.13;2127054;27;20035;-62
2024/01/28 02:22:26;;;;;;;6.50;1.88;;;;;;;;;;2114883;27;20137;-62
2024/01/28 02:23:29;;;;;;;6.32;1.95;;;;;;;21.50;39.96;102399.56;2106054;28;20028;-62
2024/01/28 02:24:34;;;;;;;5.35;1.77;;;;;;;21.49;39.75;102403.41;2100485;28;20154;-62
2024/01/28 02:25:39;;;;;;;7.53;1.92;;;;;;;21.47;39.80;102406.47;2100173;28;20021;-62
2024/01/28 02:26:41;;;;;;;6.53;2.20;;;;;;;21.47;39.96;102400.19;2115586;27;20032;-62
2024/01/28 02:27:42;;;;;;;8.13;1.90;;;;;;;21.46;39.88;102413.03;2124321;27;20020;-62
2024/01/28 02:28:43;;;;;;;10.27;2.15;;;;;;;21.45;39.85;102405.97;2123796;27;20028;-62
2024/01/28 02:29:45;;;;;;;9.45;2.08;;;;;;;21.45;39.87;102405.97;2115916;27;20066;-62
2024/01/28 02:30:47;;;;;;;10.00;1.83;;;;;;;21.45;39.91;102410.63;2106612;28;20795;-63
2024/01/28 02:31:50;;;;;;;7.45;1.80;;;;;;;21.42;39.92;102406.56;2104527;27;20101;-62
2024/01/28 02:32:51;;;;;;;8.68;1.90;;;;;;;21.43;39.82;102412.84;2115289;27;20163;-62
2024/01/28 02:33:53;;;;;;;8.95;1.85;;;;;;;21.43;40.01;102408.19;2106735;28;20960;-63
2024/01/28 02:34:57;;;;;;;6.40;2.00;;;;;;;21.43;39.83;102410.91;2103526;27;20025;-63
2024/01/28 02:36:00;;;;;;;8.98;2.00;;;;;;;21.42;39.81;102405.78;2123927;27;20035;-62
2024/01/28 02:37:01;;;;;;;7.38;1.70;;;;;;;21.42;40.02;102406.56;2115263;28;20201;-62
2024/01/28 02:38:03;;;;;;;7.03;1.73;;;;;;;21.41;40.00;102412.38;2107058;28;20056;-62
2024/01/28 02:39:05;;;;;;;6.78;1.92;;;;;;;21.41;39.87;102407.69;2115370;27;20063;-63
2024/01/28 02:40:08;;;;;;;6.40;1.70;;;;;;;21.39;40.01;102407.19;2115720;27;20012;-63
2024/01/28 02:41:10;;;;;;;7.45;1.70;;;;;;;21.40;40.11;102408.00;2123705;27;20027;-63
2024/01/28 02:42:11;;;;;;;6.25;1.73;;;;;;;21.39;39.89;102423.59;2115998;27;21036;-63
2024/01/28 02:43:12;;;;;;;5.75;1.70;;;;;;;21.39;40.11;102418.13;2115625;27;20032;-63
2024/01/28 02:44:14;;;;;;;6.57;1.90;;;;;;;21.40;40.09;102419.75;2107068;28;20020;-63
2024/01/28 02:45:15;;;;;;;7.00;1.63;;;;;;;21.40;40.17;102424.41;2115268;27;20028;-63
2024/01/28 02:46:20;;;;;;;9.43;1.80;;;;;;;21.39;40.01;102417.34;2115925;27;20027;-63
2024/01/28 02:47:21;;;;;;;8.20;2.00;;;;;;;21.38;39.98;102419.25;2124201;27;20031;-63
2024/01/28 02:48:25;;;;;;;7.25;1.75;;;;;;;21.37;40.04;102423.09;2123847;27;20779;-62
2024/01/28 02:49:27;;;;;;;6.40;1.88;;;;;;;21.38;40.27;102416.53;2107547;28;20127;-62
2024/01/28 02:50:28;;;;;;;6.95;1.90;;;;;;;21.36;40.05;102424.22;2115657;27;20863;-63
2024/01/28 02:51:30;;;;;;;7.45;1.70;;;;;;;21.37;40.08;102419.56;2106750;28;20036;-63
2024/01/28 02:52:32;;;;;;;6.35;2.08;;;;;;;21.37;39.96;102423.09;2099254;27;20083;-62
2024/01/28 02:53:33;;;;;;;7.22;1.88;;;;;;;21.35;39.98;102428.09;2106853;28;20048;-63
2024/01/28 02:54:35;;;;;;;8.15;1.92;;;;;;;21.36;40.03;102432.44;2115381;27;20031;-62
2024/01/28 02:55:37;;;;;;;7.38;2.00;;;;;;;21.35;40.16;102422.59;2123882;27;20066;-63
2024/01/28 02:56:40;;;;;;;6.45;1.40;;;;;;;21.36;40.23;102423.41;2124686;27;20853;-63
2024/01/28 02:57:42;;;;;;;6.97;1.90;;;;;;;21.36;40.13;102421.47;2123683;27;20039;-62
2024/01/28 02:58:43;;;;;;;8.25;1.80;;;;;;;21.36;40.06;102426.16;2107233;28;20028;-62
2024/01/28 02:59:45;;;;;;;7.72;1.85;;;;;;;21.35;40.00;102428.09;2106669;28;20110;-62
2024/01/28 03:00:47;;;;;;;8.55;1.70;;;;;;;21.35;40.15;102428.09;2107100;28;20079;-62
2024/01/28 03:01:49;;;;;;;7.57;2.03;;;;;;;21.33;40.08;102422.06;2107073;27;20043;-63
2024/01/28 03:02:51;;;;;;;5.47;1.63;;;;;;;21.34;40.00;102431.88;2124082;27;20839;-62
2024/01/28 03:03:53;;;;;;;6.68;2.00;;;;;;;21.34;40.17;102431.06;2124413;27;20016;-62
2024/01/28 03:04:54;;;;;;;9.43;1.85;;;;;;;21.33;40.01;102438.47;2117647;27;21393;-62
2024/01/28 03:05:57;;;;;;;6.65;1.60;;;;;;;21.33;40.21;102437.69;2123589;27;20031;-62
2024/01/28 03:07:01;;;;;;;9.40;1.92;;;;;;;21.33;40.16;102451.34;2123964;27;20854;-62
2024/01/28 03:08:03;;;;;;;8.35;1.77;;;;;;;21.33;40.11;102445.88;2123986;27;20780;-62
2024/01/28 03:09:07;;;;;;;7.10;1.60;;;;;;;21.30;40.20;102450.03;2106906;28;20037;-62
2024/01/28 03:10:09;;;;;;;6.25;1.75;;;;;;;21.31;40.02;102454.38;2099237;28;20032;-63
2024/01/28 03:11:11;;;;;;;7.22;1.52;;;;;;;21.30;40.17;102452.78;2098774;28;20021;-62
2024/01/28 03:12:12;;;;;;;8.40;1.80;;;;;;;21.29;40.11;102456.63;2115783;27;20024;-62
2024/01/28 03:13:15;;;;;;;5.30;1.58;;;;;;;21.29;40.24;102457.44;2124107;27;20075;-62
2024/01/28 03:14:16;;;;;;;6.22;1.60;;;;;;;21.28;40.21;102455.81;2106661;28;20025;-63
2024/01/28 03:15:18;;;;;;;6.80;1.60;;;;;;;21.28;40.16;102452.28;2107028;28;20024;-63
2024/01/28 03:16:19;;;;;;;9.15;1.80;;;;;;;21.27;40.32;102451.44;2115068;27;20868;-63
2024/01/28 03:17:21;;;;;;;7.10;2.03;;;;;;;21.27;40.27;102454.19;2115546;27;20839;-62
2024/01/28 03:18:25;;;;;;;9.85;1.77;;;;;;;21.27;40.19;102461.59;2115275;27;20071;-63
2024/01/28 03:19:27;;;;;;;6.07;1.50;;;;;;;21.26;40.17;102460.78;2115846;27;20037;-62
2024/01/28 03:20:32;;;;;;;8.20;1.50;;;;;;;21.27;40.02;102469.78;2098689;28;20701;-62
2024/01/28 03:21:34;;;;;;;8.25;2.00;;;;;;;21.25;40.20;102461.09;2108233;27;20054;-61
2024/01/28 03:22:36;;;;;;;4.68;1.42;;;;;;;21.25;40.11;102466.56;2123773;27;20083;-61
2024/01/28 03:23:37;;;;;;;4.50;1.52;;;;;;;21.24;40.17;102470.41;2127632;27;20133;-61
2024/01/28 03:24:40;;;;;;;9.43;1.90;;;;;;;21.23;40.22;102469.59;2132308;27;20153;-62
2024/01/28 03:25:42;;;;;;;7.05;1.42;;;;;;;21.24;40.29;102471.22;2115180;28;20961;-62
2024/01/28 03:26:44;;;;;;;9.68;1.73;;;;;;;21.23;40.04;102468.78;2107007;27;20032;-62
2024/01/28 03:27:46;;;;;;;4.72;1.45;;;;;;;21.22;39.90;102469.91;2115663;27;20095;-62
2024/01/28 03:28:48;;;;;;;7.28;2.08;;;;;;;21.22;40.15;102468.00;2107030;28;20036;-62
2024/01/28 03:29:49;;;;;;;4.55;1.63;;;;;;;21.22;40.31;102472.66;2106795;27;20036;-62
2024/01/28 03:30:52;;;;;;;8.38;1.50;;;;;;;21.20;40.17;102469.41;2132492;27;20133;-62
2024/01/28 03:31:54;;;;;;;5.65;1.50;;;;;;;21.21;39.99;102479.22;2132055;27;20891;-61
2024/01/28 03:32:56;;;;;;;7.70;1.98;;;;;;;21.21;40.06;102476.47;2115471;28;20755;-62
2024/01/28 03:33:57;;;;;;;6.07;1.77;;;;;;;21.21;40.20;102481.94;2107228;27;20033;-62
2024/01/28 03:35:01;;;;;;;9.07;1.83;;;;;;;21.20;40.08;102475.69;2119528;27;20024;-62
2024/01/28 03:36:06;;;;;;;9.60;1.40;;;;;;;21.19;40.16;102485.00;2125540;27;20031;-62
2024/01/28 03:37:07;;;;;;;8.18;1.77;;;;;;;21.21;40.16;102476.47;2122278;27;20031;-62
2024/01/28 03:38:09;;;;;;;6.57;1.65;;;;;;;21.20;39.91;102474.88;2105230;28;20119;-62
2024/01/28 03:39:16;;;;;;;8.30;1.83;;;;;;;21.18;40.20;102477.91;2105667;27;20861;-62
2024/01/28 03:40:19;;;;;;;7.45;1.70;;;;;;;21.19;40.09;102476.81;2106453;28;20036;-62
2024/01/28 03:41:21;;;;;;;4.35;1.42;;;;;;;21.18;40.04;102482.56;2106096;27;20025;-62
2024/01/28 03:42:23;;;;;;;6.65;1.40;;;;;;;21.18;40.07;102490.75;2105554;28;20906;-62
2024/01/28 03:43:25;;;;;;;7.95;1.48;;;;;;;21.18;40.32;102485.28;2114160;27;20040;-62
2024/01/28 03:44:26;;;;;;;7.03;1.77;;;;;;;21.16;40.09;102480.13;2122200;27;20108;-62
2024/01/28 03:45:30;;;;;;;6.65;1.40;;;;;;;21.17;40.16;102483.69;2122423;27;20028;-61
2024/01/28 03:46:33;;;;;;;7.43;1.73;;;;;;;21.16;40.21;102488.34;2122191;27;20217;-62
2024/01/28 03:47:35;;;;;;;5.78;1.70;;;;;;;21.16;39.86;102482.88;2114169;27;20021;-62
2024/01/28 03:48:36;;;;;;;5.55;1.65;;;;;;;21.16;40.10;102480.13;2114254;27;20024;-62
2024/01/28 03:49:38;;;;;;;6.18;1.20;;;;;;;21.16;40.20;102476.59;2122363;27;20031;-62
2024/01/28 03:50:40;;;;;;;8.32;1.75;;;;;;;21.17;40.27;102475.47;2113465;27;20882;-62
2024/01/28 03:51:42;;;;;;;7.85;1.60;;;;;;;21.17;40.07;102472.75;2122621;27;20020;-62
2024/01/28 03:52:44;;;;;;;8.13;1.73;;;;;;;21.17;40.02;102480.94;2122529;27;20030;-62
2024/01/28 03:53:45;;;;;;;6.90;1.60;;;;;;;21.16;40.18;102479.34;2105198;28;20032;-62
2024/01/28 03:54:47;;;;;;;6.63;1.50;;;;;;;21.15;40.12;102483.16;2105535;27;20035;-61
2024/01/28 03:55:49;;;;;;;5.35;1.60;;;;;;;21.16;40.04;102479.34;2113800;27;20139;-62
2024/01/28 03:56:54;;;;;;;5.40;1.30;;;;;;;21.15;40.03;102483.97;2126141;27;20023;-62
2024/01/28 03:57:58;;;;;;;7.07;1.60;;;;;;;21.15;40.14;102483.16;2113898;28;20036;-62
2024/01/28 03:58:59;;;;;;;7.30;1.45;;;;;;;21.14;39.94;102476.09;2122021;27;20140;-62
2024/01/28 04:00:03;;;;;;;4.93;1.30;;;;;;;21.13;40.06;102478.00;2122092;27;20019;-62
2024/01/28 04:01:16;;;;;;;7.35;1.70;;;;;;;21.13;40.03;102479.94;2115433;27;20866;-61
2024/01/28 04:02:21;;;;;;;8.02;1.40;;;;;;;21.12;40.08;102478.31;2116676;27;20067;-61
2024/01/28 04:03:23;;;;;;;4.90;1.50;;;;;;;21.11;39.90;102471.22;2105196;28;20025;-62
2024/01/28 04:04:24;;;;;;;6.20;1.77;;;;;;;21.11;40.17;102474.75;2096717;28;20041;-62
2024/01/28 04:05:27;;;;;;;6.05;1.27;;;;;;;21.11;40.07;102466.56;2113672;27;20028;-62
2024/01/28 04:06:29;;;;;;;6.65;1.55;;;;;;;21.11;40.19;102465.75;2130659;27;20045;-62
2024/01/28 04:07:30;;;;;;;6.25;1.70;;;;;;;21.11;40.05;102472.03;2113775;27;20040;-61
2024/01/28 04:08:32;;;;;;;5.18;1.35;;;;;;;21.10;40.12;102475.06;2122068;27;20035;-62
2024/01/28 04:09:34;;;;;;;7.97;1.50;;;;;;;21.10;40.07;102464.94;2114001;27;20136;-62
2024/01/28 04:10:36;;;;;;;9.10;1.48;;;;;;;21.11;40.19;102473.94;2113568;27;20106;-62
2024/01/28 04:11:37;;;;;;;5.60;1.30;;;;;;;21.10;40.04;102464.94;2096906;28;20031;-62
2024/01/28 04:12:39;;;;;;;5.07;1.60;;;;;;;21.09;40.08;102468.81;2114199;27;20061;-62
2024/01/28 04:13:41;;;;;;;6.90;1.40;;;;;;;21.09;40.07;102468.81;2131500;27;20126;-62
2024/01/28 04:14:45;;;;;;;7.75;1.80;;;;;;;21.09;40.16;102470.69;2131349;27;20027;-62
2024/01/28 04:15:47;;;;;;;4.75;1.48;;;;;;;21.08;40.05;102469.09;2131474;27;20813;-62
2024/01/28 04:16:51;;;;;;;5.57;1.60;;;;;;;21.10;39.91;102475.06;2131513;27;20765;-62
2024/01/28 04:17:53;;;;;;;6.20;1.55;;;;;;;21.09;40.18;102467.97;2130968;27;20906;-62
2024/01/28 04:18:57;;;;;;;9.30;1.52;;;;;;;21.09;40.06;102474.28;2122518;27;20070;-62
2024/01/28 04:19:59;;;;;;;9.40;1.50;;;;;;;21.07;39.79;102465.53;2130882;27;20858;-62
2024/01/28 04:21:00;;;;;;;8.63;1.60;;;;;;;21.08;40.13;102467.16;2131329;27;20070;-61
2024/01/28 04:22:02;;;;;;;9.00;1.52;;;;;;;21.09;40.04;102470.69;2122097;27;20134;-61
2024/01/28 04:23:09;;;;;;;6.00;1.67;;;;;;;21.09;40.07;102470.69;2122345;27;20106;-61
2024/01/28 04:24:11;;;;;;;5.78;1.40;;;;;;;21.09;40.06;102473.44;2121897;27;20131;-61
2024/01/28 04:25:13;;;;;;;3.25;1.15;;;;;;;21.08;39.98;102478.09;2122374;27;20027;-61
2024/01/28 04:26:15;;;;;;;4.78;1.60;;;;;;;21.08;40.10;102480.03;2131238;27;20016;-61
2024/01/28 04:27:17;;;;;;;5.45;1.52;;;;;;;21.06;40.15;102472.94;2121979;27;20066;-62
2024/01/28 04:28:19;;;;;;;6.43;1.52;;;;;;;21.06;40.09;102480.34;2105198;27;20064;-61
2024/01/28 04:29:20;;;;;;;5.85;1.40;;;;;;;21.06;40.02;102486.63;2105411;27;20021;-61
2024/01/28 04:30:22;;;;;;;5.35;1.30;;;;;;;21.06;40.07;102489.34;2105157;27;20048;-62
2024/01/28 04:31:26;;;;;;;7.15;1.38;;;;;;;21.06;39.94;102478.41;2122110;27;20034;-57
2024/01/28 04:32:28;;;;;;;4.25;1.30;;;;;;;21.06;39.96;102483.88;2121707;27;20067;-61
2024/01/28 04:33:30;;;;;;;5.72;1.40;;;;;;;21.06;40.02;102485.81;2114031;27;20043;-61
2024/01/28 04:34:33;;;;;;;3.88;1.10;;;;;;;21.05;39.98;102484.97;2113379;27;20020;-61
2024/01/28 04:35:35;;;;;;;4.80;1.30;;;;;;;21.04;39.94;102483.38;2113720;27;20145;-61
2024/01/28 04:36:36;;;;;;;4.60;1.10;;;;;;;21.04;39.98;102477.91;2113929;27;20036;-61
2024/01/28 04:37:38;;;;;;;8.18;1.45;;;;;;;21.04;40.13;102477.09;2122482;27;20028;-62
2024/01/28 04:38:40;;;;;;;6.03;1.33;;;;;;;21.04;40.02;102494.31;2113763;27;20113;-61
2024/01/28 04:39:42;;;;;;;5.45;1.67;;;;;;;21.03;39.97;102492.69;2114239;27;21202;-61
2024/01/28 04:40:43;;;;;;;5.07;1.35;;;;;;;21.03;40.17;102489.16;2122446;27;20035;-61
2024/01/28 04:41:44;;;;;;;5.05;1.20;;;;;;;21.03;39.92;102492.69;2122790;27;20139;-61
2024/01/28 04:42:46;;;;;;;8.27;1.42;;;;;;;21.03;40.10;102497.34;2114537;27;20028;-62
2024/01/28 04:43:48;;;;;;;6.25;1.13;;;;;;;21.03;40.05;102491.91;2106739;28;20025;-62
2024/01/28 04:44:52;;;;;;;4.80;1.20;;;;;;;21.02;40.10;102491.06;2089733;28;20144;-61
2024/01/28 04:45:55;;;;;;;3.72;1.10;;;;;;;21.02;40.00;102496.53;2099288;27;20883;-61
2024/01/28 04:46:57;;;;;;;4.30;1.23;;;;;;;21.03;40.02;102500.09;2114862;27;20025;-62
2024/01/28 04:47:58;;;;;;;5.22;1.48;;;;;;;21.02;39.84;102496.53;2115020;27;20063;-62
2024/01/28 04:49:03;;;;;;;6.20;1.10;;;;;;;21.03;39.96;102497.34;2114583;28;20074;-62
2024/01/28 04:50:07;;;;;;;4.75;1.17;;;;;;;21.01;39.79;102494.91;2106388;28;20897;-62